sensor_id;sensor_type;location;lat;lon;timestamp;P1;durP1;ratioP1;P2;durP2;ratioP2
62679;SDS011;68213;40.528;44.712;2023-05-09T00:00:08;2.28;;;1.75;;
62679;SDS011;68213;40.528;44.712;2023-05-09T00:01:12;4.03;;;2.28;;
62679;SDS011;68213;40.528;44.712;2023-05-09T00:02:13;3.67;;;2.25;;
62679;SDS011;68213;40.528;44.712;2023-05-09T00:03:15;4.60;;;2.22;;
62679;SDS011;68213;40.528;44.712;2023-05-09T00:04:15;5.40;;;2.50;;
62679;SDS011;68213;40.528;44.712;2023-05-09T00:05:16;4.72;;;2.30;;
62679;SDS011;68213;40.528;44.712;2023-05-09T00:06:17;3.28;;;2.13;;
62679;SDS011;68213;40.528;44.712;2023-05-09T00:07:18;5.25;;;2.38;;
62679;SDS011;68213;40.528;44.712;2023-05-09T00:08:19;4.57;;;2.50;;
62679;SDS011;68213;40.528;44.712;2023-05-09T00:09:20;6.05;;;2.47;;
62679;SDS011;68213;40.528;44.712;2023-05-09T00:10:20;5.00;;;2.00;;
62679;SDS011;68213;40.528;44.712;2023-05-09T00:11:21;3.83;;;2.53;;
62679;SDS011;68213;40.528;44.712;2023-05-09T00:12:22;4.22;;;2.20;;
62679;SDS011;68213;40.528;44.712;2023-05-09T00:13:23;6.28;;;2.30;;
62679;SDS011;68213;40.528;44.712;2023-05-09T00:14:23;2.85;;;2.10;;
62679;SDS011;68213;40.528;44.712;2023-05-09T00:15:24;5.05;;;2.33;;
62679;SDS011;68213;40.528;44.712;2023-05-09T00:16:25;6.43;;;2.30;;
62679;SDS011;68213;40.528;44.712;2023-05-09T00:17:27;3.35;;;2.28;;
62679;SDS011;68213;40.528;44.712;2023-05-09T00:18:28;4.38;;;2.38;;
62679;SDS011;68213;40.528;44.712;2023-05-09T00:19:30;4.95;;;2.80;;
62679;SDS011;68213;40.528;44.712;2023-05-09T00:20:31;3.53;;;2.47;;
62679;SDS011;68213;40.528;44.712;2023-05-09T00:21:33;5.82;;;2.60;;
62679;SDS011;68213;40.528;44.712;2023-05-09T00:22:33;5.22;;;2.58;;
62679;SDS011;68213;40.528;44.712;2023-05-09T00:23:36;5.07;;;2.80;;
62679;SDS011;68213;40.528;44.712;2023-05-09T00:24:37;4.13;;;2.60;;
62679;SDS011;68213;40.528;44.712;2023-05-09T00:25:38;4.72;;;3.00;;
62679;SDS011;68213;40.528;44.712;2023-05-09T00:26:39;3.17;;;2.40;;
62679;SDS011;68213;40.528;44.712;2023-05-09T00:27:39;3.65;;;2.70;;
62679;SDS011;68213;40.528;44.712;2023-05-09T00:28:42;3.97;;;2.35;;
62679;SDS011;68213;40.528;44.712;2023-05-09T00:29:43;5.50;;;2.38;;
62679;SDS011;68213;40.528;44.712;2023-05-09T00:30:44;4.75;;;2.60;;
62679;SDS011;68213;40.528;44.712;2023-05-09T00:31:47;5.93;;;2.67;;
62679;SDS011;68213;40.528;44.712;2023-05-09T00:32:50;5.82;;;2.67;;
62679;SDS011;68213;40.528;44.712;2023-05-09T00:33:52;4.13;;;2.40;;
62679;SDS011;68213;40.528;44.712;2023-05-09T00:34:53;3.25;;;2.22;;
62679;SDS011;68213;40.528;44.712;2023-05-09T00:35:54;8.15;;;2.20;;
62679;SDS011;68213;40.528;44.712;2023-05-09T00:36:55;5.63;;;2.28;;
62679;SDS011;68213;40.528;44.712;2023-05-09T00:37:55;6.45;;;2.40;;
62679;SDS011;68213;40.528;44.712;2023-05-09T00:38:56;5.55;;;2.35;;
62679;SDS011;68213;40.528;44.712;2023-05-09T00:39:57;3.42;;;2.10;;
62679;SDS011;68213;40.528;44.712;2023-05-09T00:40:58;4.82;;;2.75;;
62679;SDS011;68213;40.528;44.712;2023-05-09T00:41:59;4.75;;;2.38;;
62679;SDS011;68213;40.528;44.712;2023-05-09T00:43:00;3.33;;;2.30;;
62679;SDS011;68213;40.528;44.712;2023-05-09T00:44:00;5.35;;;2.30;;
62679;SDS011;68213;40.528;44.712;2023-05-09T00:45:01;7.15;;;2.40;;
62679;SDS011;68213;40.528;44.712;2023-05-09T00:46:03;6.65;;;2.63;;
62679;SDS011;68213;40.528;44.712;2023-05-09T00:47:05;5.28;;;2.42;;
62679;SDS011;68213;40.528;44.712;2023-05-09T00:48:06;6.50;;;2.60;;
62679;SDS011;68213;40.528;44.712;2023-05-09T00:49:07;5.20;;;2.50;;
62679;SDS011;68213;40.528;44.712;2023-05-09T00:50:07;4.32;;;2.30;;
62679;SDS011;68213;40.528;44.712;2023-05-09T00:51:09;4.10;;;2.47;;
62679;SDS011;68213;40.528;44.712;2023-05-09T00:52:10;3.50;;;2.30;;
62679;SDS011;68213;40.528;44.712;2023-05-09T00:53:11;4.95;;;2.20;;
62679;SDS011;68213;40.528;44.712;2023-05-09T00:54:12;5.05;;;2.25;;
62679;SDS011;68213;40.528;44.712;2023-05-09T00:55:13;4.72;;;2.22;;
62679;SDS011;68213;40.528;44.712;2023-05-09T00:56:14;6.00;;;2.20;;
62679;SDS011;68213;40.528;44.712;2023-05-09T00:57:16;4.25;;;1.90;;
62679;SDS011;68213;40.528;44.712;2023-05-09T00:58:16;3.88;;;1.90;;
62679;SDS011;68213;40.528;44.712;2023-05-09T00:59:18;4.15;;;2.08;;
62679;SDS011;68213;40.528;44.712;2023-05-09T01:00:20;4.03;;;2.00;;
62679;SDS011;68213;40.528;44.712;2023-05-09T01:01:21;3.33;;;1.98;;
62679;SDS011;68213;40.528;44.712;2023-05-09T01:02:22;3.15;;;1.98;;
62679;SDS011;68213;40.528;44.712;2023-05-09T01:03:23;4.22;;;2.08;;
62679;SDS011;68213;40.528;44.712;2023-05-09T01:04:24;3.50;;;2.00;;
62679;SDS011;68213;40.528;44.712;2023-05-09T01:05:27;3.47;;;1.95;;
62679;SDS011;68213;40.528;44.712;2023-05-09T01:06:47;2.50;;;1.50;;
62679;SDS011;68213;40.528;44.712;2023-05-09T01:08:02;5.40;;;1.83;;
62679;SDS011;68213;40.528;44.712;2023-05-09T01:11:12;5.55;;;1.70;;
62679;SDS011;68213;40.528;44.712;2023-05-09T01:13:26;4.90;;;1.92;;
62679;SDS011;68213;40.528;44.712;2023-05-09T01:16:38;3.22;;;1.83;;
62679;SDS011;68213;40.528;44.712;2023-05-09T01:21:31;6.43;;;2.10;;
62679;SDS011;68213;40.528;44.712;2023-05-09T01:22:34;3.17;;;1.88;;
62679;SDS011;68213;40.528;44.712;2023-05-09T01:26:03;2.92;;;1.70;;
62679;SDS011;68213;40.528;44.712;2023-05-09T01:29:46;2.78;;;1.80;;
62679;SDS011;68213;40.528;44.712;2023-05-09T01:30:47;2.97;;;1.80;;
62679;SDS011;68213;40.528;44.712;2023-05-09T01:31:52;2.97;;;1.88;;
62679;SDS011;68213;40.528;44.712;2023-05-09T01:32:56;4.82;;;2.15;;
62679;SDS011;68213;40.528;44.712;2023-05-09T01:34:00;3.22;;;1.83;;
62679;SDS011;68213;40.528;44.712;2023-05-09T01:35:02;6.35;;;2.15;;
62679;SDS011;68213;40.528;44.712;2023-05-09T01:36:05;3.75;;;1.92;;
62679;SDS011;68213;40.528;44.712;2023-05-09T01:37:12;5.30;;;2.00;;
62679;SDS011;68213;40.528;44.712;2023-05-09T01:38:16;4.18;;;2.00;;
62679;SDS011;68213;40.528;44.712;2023-05-09T01:39:21;3.35;;;2.08;;
62679;SDS011;68213;40.528;44.712;2023-05-09T01:40:24;4.75;;;1.98;;
62679;SDS011;68213;40.528;44.712;2023-05-09T01:41:33;4.30;;;2.03;;
62679;SDS011;68213;40.528;44.712;2023-05-09T01:43:57;4.97;;;1.95;;
62679;SDS011;68213;40.528;44.712;2023-05-09T01:45:01;6.78;;;1.88;;
62679;SDS011;68213;40.528;44.712;2023-05-09T01:46:04;5.68;;;2.03;;
62679;SDS011;68213;40.528;44.712;2023-05-09T01:47:07;4.03;;;1.77;;
62679;SDS011;68213;40.528;44.712;2023-05-09T01:48:09;4.90;;;1.98;;
62679;SDS011;68213;40.528;44.712;2023-05-09T01:49:11;2.90;;;2.00;;
62679;SDS011;68213;40.528;44.712;2023-05-09T01:50:13;4.30;;;1.88;;
62679;SDS011;68213;40.528;44.712;2023-05-09T01:51:18;4.47;;;2.22;;
62679;SDS011;68213;40.528;44.712;2023-05-09T01:52:20;3.28;;;2.10;;
62679;SDS011;68213;40.528;44.712;2023-05-09T01:53:23;3.45;;;1.60;;
62679;SDS011;68213;40.528;44.712;2023-05-09T01:54:27;3.50;;;1.65;;
62679;SDS011;68213;40.528;44.712;2023-05-09T01:55:29;4.72;;;1.90;;
62679;SDS011;68213;40.528;44.712;2023-05-09T01:56:33;3.08;;;1.80;;
62679;SDS011;68213;40.528;44.712;2023-05-09T01:57:36;5.03;;;2.05;;
62679;SDS011;68213;40.528;44.712;2023-05-09T01:58:38;3.05;;;2.10;;
62679;SDS011;68213;40.528;44.712;2023-05-09T01:59:43;2.15;;;1.85;;
62679;SDS011;68213;40.528;44.712;2023-05-09T02:00:49;3.55;;;2.00;;
62679;SDS011;68213;40.528;44.712;2023-05-09T02:01:50;3.35;;;2.13;;
62679;SDS011;68213;40.528;44.712;2023-05-09T02:02:52;2.88;;;1.90;;
62679;SDS011;68213;40.528;44.712;2023-05-09T02:03:53;3.90;;;2.10;;
62679;SDS011;68213;40.528;44.712;2023-05-09T02:04:56;6.50;;;2.30;;
62679;SDS011;68213;40.528;44.712;2023-05-09T02:05:57;6.57;;;2.40;;
62679;SDS011;68213;40.528;44.712;2023-05-09T02:06:59;4.20;;;2.20;;
62679;SDS011;68213;40.528;44.712;2023-05-09T02:08:01;4.53;;;2.30;;
62679;SDS011;68213;40.528;44.712;2023-05-09T02:09:03;5.20;;;2.58;;
62679;SDS011;68213;40.528;44.712;2023-05-09T02:10:06;3.47;;;2.03;;
62679;SDS011;68213;40.528;44.712;2023-05-09T02:11:08;3.30;;;1.80;;
62679;SDS011;68213;40.528;44.712;2023-05-09T02:12:10;3.80;;;2.15;;
62679;SDS011;68213;40.528;44.712;2023-05-09T02:13:10;5.47;;;2.08;;
62679;SDS011;68213;40.528;44.712;2023-05-09T02:14:11;4.00;;;1.90;;
62679;SDS011;68213;40.528;44.712;2023-05-09T02:15:13;5.80;;;2.00;;
62679;SDS011;68213;40.528;44.712;2023-05-09T02:16:14;3.08;;;2.05;;
62679;SDS011;68213;40.528;44.712;2023-05-09T02:17:15;6.43;;;2.10;;
62679;SDS011;68213;40.528;44.712;2023-05-09T02:18:16;3.50;;;2.20;;
62679;SDS011;68213;40.528;44.712;2023-05-09T02:19:20;4.68;;;2.53;;
62679;SDS011;68213;40.528;44.712;2023-05-09T02:20:21;5.30;;;2.47;;
62679;SDS011;68213;40.528;44.712;2023-05-09T02:21:22;3.97;;;2.20;;
62679;SDS011;68213;40.528;44.712;2023-05-09T02:22:22;5.32;;;2.28;;
62679;SDS011;68213;40.528;44.712;2023-05-09T02:23:23;3.67;;;2.30;;
62679;SDS011;68213;40.528;44.712;2023-05-09T02:24:26;3.90;;;1.90;;
62679;SDS011;68213;40.528;44.712;2023-05-09T02:25:27;3.70;;;2.33;;
62679;SDS011;68213;40.528;44.712;2023-05-09T02:26:28;4.25;;;2.20;;
62679;SDS011;68213;40.528;44.712;2023-05-09T02:27:31;4.22;;;2.33;;
62679;SDS011;68213;40.528;44.712;2023-05-09T02:28:33;3.10;;;2.10;;
62679;SDS011;68213;40.528;44.712;2023-05-09T02:29:36;2.90;;;2.10;;
62679;SDS011;68213;40.528;44.712;2023-05-09T02:30:45;5.22;;;2.50;;
62679;SDS011;68213;40.528;44.712;2023-05-09T02:31:48;4.03;;;2.38;;
62679;SDS011;68213;40.528;44.712;2023-05-09T02:32:52;5.18;;;2.40;;
62679;SDS011;68213;40.528;44.712;2023-05-09T02:33:57;3.42;;;2.00;;
62679;SDS011;68213;40.528;44.712;2023-05-09T02:34:58;3.38;;;2.00;;
62679;SDS011;68213;40.528;44.712;2023-05-09T02:36:01;3.15;;;2.17;;
62679;SDS011;68213;40.528;44.712;2023-05-09T02:37:02;7.85;;;2.30;;
62679;SDS011;68213;40.528;44.712;2023-05-09T02:38:03;3.33;;;2.20;;
62679;SDS011;68213;40.528;44.712;2023-05-09T02:39:05;4.40;;;2.20;;
62679;SDS011;68213;40.528;44.712;2023-05-09T02:40:06;7.63;;;1.98;;
62679;SDS011;68213;40.528;44.712;2023-05-09T02:41:14;3.15;;;2.33;;
62679;SDS011;68213;40.528;44.712;2023-05-09T02:42:21;4.40;;;2.03;;
62679;SDS011;68213;40.528;44.712;2023-05-09T02:43:29;4.65;;;2.13;;
62679;SDS011;68213;40.528;44.712;2023-05-09T02:44:29;3.83;;;2.20;;
62679;SDS011;68213;40.528;44.712;2023-05-09T02:45:30;3.20;;;2.28;;
62679;SDS011;68213;40.528;44.712;2023-05-09T02:46:32;4.25;;;2.03;;
62679;SDS011;68213;40.528;44.712;2023-05-09T02:47:33;4.13;;;2.60;;
62679;SDS011;68213;40.528;44.712;2023-05-09T02:48:33;3.00;;;2.33;;
62679;SDS011;68213;40.528;44.712;2023-05-09T02:49:35;5.78;;;2.22;;
62679;SDS011;68213;40.528;44.712;2023-05-09T02:50:35;5.15;;;2.45;;
62679;SDS011;68213;40.528;44.712;2023-05-09T02:51:41;4.47;;;2.22;;
62679;SDS011;68213;40.528;44.712;2023-05-09T02:52:45;3.80;;;2.17;;
62679;SDS011;68213;40.528;44.712;2023-05-09T02:53:45;6.25;;;2.60;;
62679;SDS011;68213;40.528;44.712;2023-05-09T02:54:46;3.72;;;2.30;;
62679;SDS011;68213;40.528;44.712;2023-05-09T02:55:47;4.15;;;2.30;;
62679;SDS011;68213;40.528;44.712;2023-05-09T02:56:48;4.32;;;2.45;;
62679;SDS011;68213;40.528;44.712;2023-05-09T02:57:50;5.15;;;2.10;;
62679;SDS011;68213;40.528;44.712;2023-05-09T02:58:51;4.38;;;2.80;;
62679;SDS011;68213;40.528;44.712;2023-05-09T02:59:51;6.18;;;2.90;;
62679;SDS011;68213;40.528;44.712;2023-05-09T03:00:54;4.05;;;2.97;;
62679;SDS011;68213;40.528;44.712;2023-05-09T03:01:55;4.65;;;3.08;;
62679;SDS011;68213;40.528;44.712;2023-05-09T03:02:56;5.78;;;3.33;;
62679;SDS011;68213;40.528;44.712;2023-05-09T03:03:56;5.63;;;3.20;;
62679;SDS011;68213;40.528;44.712;2023-05-09T03:04:57;6.30;;;3.00;;
62679;SDS011;68213;40.528;44.712;2023-05-09T03:05:58;6.95;;;2.97;;
62679;SDS011;68213;40.528;44.712;2023-05-09T03:06:58;5.63;;;3.25;;
62679;SDS011;68213;40.528;44.712;2023-05-09T03:07:59;7.75;;;3.00;;
62679;SDS011;68213;40.528;44.712;2023-05-09T03:08:59;5.43;;;3.10;;
62679;SDS011;68213;40.528;44.712;2023-05-09T03:10:03;4.60;;;2.83;;
62679;SDS011;68213;40.528;44.712;2023-05-09T03:11:04;4.40;;;2.53;;
62679;SDS011;68213;40.528;44.712;2023-05-09T03:12:05;4.90;;;2.60;;
62679;SDS011;68213;40.528;44.712;2023-05-09T03:13:05;4.45;;;2.83;;
62679;SDS011;68213;40.528;44.712;2023-05-09T03:14:07;3.55;;;2.50;;
62679;SDS011;68213;40.528;44.712;2023-05-09T03:15:09;3.72;;;2.90;;
62679;SDS011;68213;40.528;44.712;2023-05-09T03:16:11;5.57;;;2.60;;
62679;SDS011;68213;40.528;44.712;2023-05-09T03:17:13;3.90;;;2.58;;
62679;SDS011;68213;40.528;44.712;2023-05-09T03:18:20;8.82;;;3.05;;
62679;SDS011;68213;40.528;44.712;2023-05-09T03:19:20;4.88;;;2.50;;
62679;SDS011;68213;40.528;44.712;2023-05-09T03:20:21;4.03;;;2.30;;
62679;SDS011;68213;40.528;44.712;2023-05-09T03:21:22;7.10;;;2.63;;
62679;SDS011;68213;40.528;44.712;2023-05-09T03:22:22;5.97;;;3.00;;
62679;SDS011;68213;40.528;44.712;2023-05-09T03:23:24;3.53;;;2.58;;
62679;SDS011;68213;40.528;44.712;2023-05-09T03:24:25;5.28;;;2.58;;
62679;SDS011;68213;40.528;44.712;2023-05-09T03:25:27;5.75;;;2.55;;
62679;SDS011;68213;40.528;44.712;2023-05-09T03:26:28;5.68;;;2.60;;
62679;SDS011;68213;40.528;44.712;2023-05-09T03:27:28;5.63;;;2.38;;
62679;SDS011;68213;40.528;44.712;2023-05-09T03:28:29;5.22;;;2.33;;
62679;SDS011;68213;40.528;44.712;2023-05-09T03:29:30;5.72;;;2.60;;
62679;SDS011;68213;40.528;44.712;2023-05-09T03:30:30;5.57;;;2.40;;
62679;SDS011;68213;40.528;44.712;2023-05-09T03:31:31;4.95;;;2.30;;
62679;SDS011;68213;40.528;44.712;2023-05-09T03:32:32;2.83;;;2.22;;
62679;SDS011;68213;40.528;44.712;2023-05-09T03:33:32;4.03;;;2.22;;
62679;SDS011;68213;40.528;44.712;2023-05-09T03:34:33;4.85;;;2.63;;
62679;SDS011;68213;40.528;44.712;2023-05-09T03:35:33;2.83;;;1.90;;
62679;SDS011;68213;40.528;44.712;2023-05-09T03:36:34;7.45;;;2.75;;
62679;SDS011;68213;40.528;44.712;2023-05-09T03:37:35;6.05;;;2.38;;
62679;SDS011;68213;40.528;44.712;2023-05-09T03:38:35;4.78;;;2.20;;
62679;SDS011;68213;40.528;44.712;2023-05-09T03:39:36;3.08;;;2.20;;
62679;SDS011;68213;40.528;44.712;2023-05-09T03:40:37;4.55;;;2.38;;
62679;SDS011;68213;40.528;44.712;2023-05-09T03:41:37;4.65;;;2.20;;
62679;SDS011;68213;40.528;44.712;2023-05-09T03:42:38;3.90;;;2.47;;
62679;SDS011;68213;40.528;44.712;2023-05-09T03:43:39;2.75;;;2.03;;
62679;SDS011;68213;40.528;44.712;2023-05-09T03:44:40;4.05;;;2.30;;
62679;SDS011;68213;40.528;44.712;2023-05-09T03:45:40;4.32;;;2.83;;
62679;SDS011;68213;40.528;44.712;2023-05-09T03:46:41;3.15;;;2.20;;
62679;SDS011;68213;40.528;44.712;2023-05-09T03:47:41;5.22;;;2.38;;
62679;SDS011;68213;40.528;44.712;2023-05-09T03:48:42;6.75;;;2.50;;
62679;SDS011;68213;40.528;44.712;2023-05-09T03:49:43;5.25;;;2.72;;
62679;SDS011;68213;40.528;44.712;2023-05-09T03:50:43;2.75;;;2.20;;
62679;SDS011;68213;40.528;44.712;2023-05-09T03:51:44;3.50;;;2.55;;
62679;SDS011;68213;40.528;44.712;2023-05-09T03:52:45;4.72;;;2.13;;
62679;SDS011;68213;40.528;44.712;2023-05-09T03:53:46;4.60;;;2.40;;
62679;SDS011;68213;40.528;44.712;2023-05-09T03:54:46;4.03;;;2.05;;
62679;SDS011;68213;40.528;44.712;2023-05-09T03:55:47;3.55;;;2.35;;
62679;SDS011;68213;40.528;44.712;2023-05-09T03:56:48;3.58;;;2.20;;
62679;SDS011;68213;40.528;44.712;2023-05-09T03:57:48;3.95;;;2.20;;
62679;SDS011;68213;40.528;44.712;2023-05-09T03:58:49;4.38;;;2.35;;
62679;SDS011;68213;40.528;44.712;2023-05-09T03:59:50;3.60;;;2.30;;
62679;SDS011;68213;40.528;44.712;2023-05-09T04:00:52;4.78;;;2.03;;
62679;SDS011;68213;40.528;44.712;2023-05-09T04:01:54;3.22;;;2.30;;
62679;SDS011;68213;40.528;44.712;2023-05-09T04:02:55;5.28;;;2.05;;
62679;SDS011;68213;40.528;44.712;2023-05-09T04:03:56;7.03;;;2.20;;
62679;SDS011;68213;40.528;44.712;2023-05-09T04:04:56;3.60;;;2.28;;
62679;SDS011;68213;40.528;44.712;2023-05-09T04:05:57;4.68;;;2.50;;
62679;SDS011;68213;40.528;44.712;2023-05-09T04:06:58;4.45;;;2.00;;
62679;SDS011;68213;40.528;44.712;2023-05-09T04:07:58;3.05;;;2.17;;
62679;SDS011;68213;40.528;44.712;2023-05-09T04:08:59;5.60;;;2.17;;
62679;SDS011;68213;40.528;44.712;2023-05-09T04:10:02;6.15;;;2.47;;
62679;SDS011;68213;40.528;44.712;2023-05-09T04:11:04;6.38;;;2.40;;
62679;SDS011;68213;40.528;44.712;2023-05-09T04:12:05;3.78;;;2.28;;
62679;SDS011;68213;40.528;44.712;2023-05-09T04:13:06;3.47;;;1.95;;
62679;SDS011;68213;40.528;44.712;2023-05-09T04:14:07;3.25;;;2.15;;
62679;SDS011;68213;40.528;44.712;2023-05-09T04:15:07;4.78;;;2.13;;
62679;SDS011;68213;40.528;44.712;2023-05-09T04:16:09;4.55;;;2.10;;
62679;SDS011;68213;40.528;44.712;2023-05-09T04:17:09;2.60;;;1.90;;
62679;SDS011;68213;40.528;44.712;2023-05-09T04:18:10;3.95;;;1.90;;
62679;SDS011;68213;40.528;44.712;2023-05-09T04:19:11;4.63;;;2.10;;
62679;SDS011;68213;40.528;44.712;2023-05-09T04:20:11;4.50;;;2.00;;
62679;SDS011;68213;40.528;44.712;2023-05-09T04:21:12;2.58;;;1.95;;
62679;SDS011;68213;40.528;44.712;2023-05-09T04:22:12;3.15;;;2.20;;
62679;SDS011;68213;40.528;44.712;2023-05-09T04:23:13;3.28;;;2.15;;
62679;SDS011;68213;40.528;44.712;2023-05-09T04:24:14;4.85;;;2.10;;
62679;SDS011;68213;40.528;44.712;2023-05-09T04:25:15;3.53;;;2.45;;
62679;SDS011;68213;40.528;44.712;2023-05-09T04:26:15;3.45;;;2.10;;
62679;SDS011;68213;40.528;44.712;2023-05-09T04:27:17;4.03;;;2.40;;
62679;SDS011;68213;40.528;44.712;2023-05-09T04:28:18;4.38;;;2.20;;
62679;SDS011;68213;40.528;44.712;2023-05-09T04:29:18;5.53;;;2.40;;
62679;SDS011;68213;40.528;44.712;2023-05-09T04:30:19;3.78;;;2.28;;
62679;SDS011;68213;40.528;44.712;2023-05-09T04:31:20;4.63;;;2.60;;
62679;SDS011;68213;40.528;44.712;2023-05-09T04:32:22;3.75;;;2.00;;
62679;SDS011;68213;40.528;44.712;2023-05-09T04:33:22;3.92;;;2.50;;
62679;SDS011;68213;40.528;44.712;2023-05-09T04:34:23;4.28;;;2.30;;
62679;SDS011;68213;40.528;44.712;2023-05-09T04:35:25;3.28;;;1.80;;
62679;SDS011;68213;40.528;44.712;2023-05-09T04:36:26;5.35;;;2.20;;
62679;SDS011;68213;40.528;44.712;2023-05-09T04:37:28;10.32;;;2.28;;
62679;SDS011;68213;40.528;44.712;2023-05-09T04:38:29;3.25;;;2.20;;
62679;SDS011;68213;40.528;44.712;2023-05-09T04:39:30;3.03;;;2.13;;
62679;SDS011;68213;40.528;44.712;2023-05-09T04:40:31;3.13;;;1.65;;
62679;SDS011;68213;40.528;44.712;2023-05-09T04:41:32;3.35;;;1.63;;
62679;SDS011;68213;40.528;44.712;2023-05-09T04:42:33;4.88;;;1.77;;
62679;SDS011;68213;40.528;44.712;2023-05-09T04:43:35;2.63;;;1.45;;
62679;SDS011;68213;40.528;44.712;2023-05-09T04:44:35;4.13;;;1.50;;
62679;SDS011;68213;40.528;44.712;2023-05-09T04:45:36;2.05;;;1.50;;
62679;SDS011;68213;40.528;44.712;2023-05-09T04:46:37;3.25;;;2.00;;
62679;SDS011;68213;40.528;44.712;2023-05-09T04:47:37;4.50;;;2.85;;
62679;SDS011;68213;40.528;44.712;2023-05-09T04:48:38;3.83;;;2.33;;
62679;SDS011;68213;40.528;44.712;2023-05-09T04:49:39;4.80;;;2.38;;
62679;SDS011;68213;40.528;44.712;2023-05-09T04:50:39;4.88;;;2.55;;
62679;SDS011;68213;40.528;44.712;2023-05-09T04:51:40;3.15;;;1.77;;
62679;SDS011;68213;40.528;44.712;2023-05-09T04:52:41;3.22;;;2.05;;
62679;SDS011;68213;40.528;44.712;2023-05-09T04:53:41;2.47;;;1.80;;
62679;SDS011;68213;40.528;44.712;2023-05-09T04:54:42;4.07;;;1.85;;
62679;SDS011;68213;40.528;44.712;2023-05-09T04:55:43;5.55;;;2.33;;
62679;SDS011;68213;40.528;44.712;2023-05-09T04:56:44;2.53;;;1.67;;
62679;SDS011;68213;40.528;44.712;2023-05-09T04:57:44;4.35;;;2.00;;
62679;SDS011;68213;40.528;44.712;2023-05-09T04:58:45;2.88;;;1.90;;
62679;SDS011;68213;40.528;44.712;2023-05-09T04:59:46;3.28;;;1.75;;
62679;SDS011;68213;40.528;44.712;2023-05-09T05:00:46;2.83;;;1.73;;
62679;SDS011;68213;40.528;44.712;2023-05-09T05:01:47;4.05;;;1.80;;
62679;SDS011;68213;40.528;44.712;2023-05-09T05:02:48;2.80;;;1.70;;
62679;SDS011;68213;40.528;44.712;2023-05-09T05:03:49;2.97;;;1.58;;
62679;SDS011;68213;40.528;44.712;2023-05-09T05:04:50;2.40;;;1.80;;
62679;SDS011;68213;40.528;44.712;2023-05-09T05:05:51;3.53;;;1.52;;
62679;SDS011;68213;40.528;44.712;2023-05-09T05:06:52;2.65;;;1.45;;
62679;SDS011;68213;40.528;44.712;2023-05-09T05:07:52;2.65;;;1.70;;
62679;SDS011;68213;40.528;44.712;2023-05-09T05:08:53;1.50;;;1.40;;
62679;SDS011;68213;40.528;44.712;2023-05-09T05:09:55;4.00;;;1.52;;
62679;SDS011;68213;40.528;44.712;2023-05-09T05:10:56;3.55;;;1.65;;
62679;SDS011;68213;40.528;44.712;2023-05-09T05:11:56;4.15;;;1.80;;
62679;SDS011;68213;40.528;44.712;2023-05-09T05:12:57;4.65;;;1.50;;
62679;SDS011;68213;40.528;44.712;2023-05-09T05:13:58;5.53;;;1.50;;
62679;SDS011;68213;40.528;44.712;2023-05-09T05:14:58;2.92;;;1.90;;
62679;SDS011;68213;40.528;44.712;2023-05-09T05:15:59;4.40;;;1.90;;
62679;SDS011;68213;40.528;44.712;2023-05-09T05:17:00;2.80;;;1.85;;
62679;SDS011;68213;40.528;44.712;2023-05-09T05:18:01;2.63;;;1.70;;
62679;SDS011;68213;40.528;44.712;2023-05-09T05:19:01;3.67;;;1.60;;
62679;SDS011;68213;40.528;44.712;2023-05-09T05:20:02;3.53;;;1.80;;
62679;SDS011;68213;40.528;44.712;2023-05-09T05:21:05;3.05;;;1.67;;
62679;SDS011;68213;40.528;44.712;2023-05-09T05:22:06;3.95;;;1.60;;
62679;SDS011;68213;40.528;44.712;2023-05-09T05:23:07;3.65;;;1.65;;
62679;SDS011;68213;40.528;44.712;2023-05-09T05:24:08;2.40;;;1.73;;
62679;SDS011;68213;40.528;44.712;2023-05-09T05:25:09;2.08;;;1.50;;
62679;SDS011;68213;40.528;44.712;2023-05-09T05:26:09;4.85;;;1.77;;
62679;SDS011;68213;40.528;44.712;2023-05-09T05:27:12;3.08;;;1.80;;
62679;SDS011;68213;40.528;44.712;2023-05-09T05:28:13;2.95;;;1.70;;
62679;SDS011;68213;40.528;44.712;2023-05-09T05:29:14;1.65;;;1.48;;
62679;SDS011;68213;40.528;44.712;2023-05-09T05:30:14;4.68;;;1.70;;
62679;SDS011;68213;40.528;44.712;2023-05-09T05:31:15;3.15;;;1.90;;
62679;SDS011;68213;40.528;44.712;2023-05-09T05:32:16;6.13;;;1.85;;
62679;SDS011;68213;40.528;44.712;2023-05-09T05:33:16;4.97;;;1.80;;
62679;SDS011;68213;40.528;44.712;2023-05-09T05:34:17;2.72;;;1.73;;
62679;SDS011;68213;40.528;44.712;2023-05-09T05:35:18;3.85;;;1.83;;
62679;SDS011;68213;40.528;44.712;2023-05-09T05:36:22;2.67;;;1.70;;
62679;SDS011;68213;40.528;44.712;2023-05-09T05:37:22;2.92;;;1.70;;
62679;SDS011;68213;40.528;44.712;2023-05-09T05:38:23;3.50;;;1.75;;
62679;SDS011;68213;40.528;44.712;2023-05-09T05:39:24;4.13;;;1.77;;
62679;SDS011;68213;40.528;44.712;2023-05-09T05:40:24;2.40;;;1.80;;
62679;SDS011;68213;40.528;44.712;2023-05-09T05:41:25;5.65;;;1.58;;
62679;SDS011;68213;40.528;44.712;2023-05-09T05:42:26;3.05;;;1.63;;
62679;SDS011;68213;40.528;44.712;2023-05-09T05:43:26;1.88;;;1.55;;
62679;SDS011;68213;40.528;44.712;2023-05-09T05:44:29;3.65;;;1.60;;
62679;SDS011;68213;40.528;44.712;2023-05-09T05:45:30;5.47;;;1.90;;
62679;SDS011;68213;40.528;44.712;2023-05-09T05:46:34;2.80;;;1.48;;
62679;SDS011;68213;40.528;44.712;2023-05-09T05:47:35;2.60;;;1.50;;
62679;SDS011;68213;40.528;44.712;2023-05-09T05:48:38;4.20;;;1.60;;
62679;SDS011;68213;40.528;44.712;2023-05-09T05:49:40;7.43;;;1.80;;
62679;SDS011;68213;40.528;44.712;2023-05-09T05:50:40;2.33;;;1.48;;
62679;SDS011;68213;40.528;44.712;2023-05-09T05:51:41;2.70;;;1.77;;
62679;SDS011;68213;40.528;44.712;2023-05-09T05:52:42;5.35;;;1.85;;
62679;SDS011;68213;40.528;44.712;2023-05-09T05:53:42;5.05;;;1.90;;
62679;SDS011;68213;40.528;44.712;2023-05-09T05:54:43;2.22;;;1.60;;
62679;SDS011;68213;40.528;44.712;2023-05-09T05:55:44;2.85;;;1.52;;
62679;SDS011;68213;40.528;44.712;2023-05-09T05:56:45;5.93;;;1.77;;
62679;SDS011;68213;40.528;44.712;2023-05-09T05:57:46;2.97;;;1.55;;
62679;SDS011;68213;40.528;44.712;2023-05-09T05:58:47;3.15;;;1.70;;
62679;SDS011;68213;40.528;44.712;2023-05-09T05:59:48;5.00;;;1.80;;
62679;SDS011;68213;40.528;44.712;2023-05-09T06:00:50;5.35;;;1.90;;
62679;SDS011;68213;40.528;44.712;2023-05-09T06:01:52;4.70;;;1.80;;
62679;SDS011;68213;40.528;44.712;2023-05-09T06:02:52;5.15;;;1.50;;
62679;SDS011;68213;40.528;44.712;2023-05-09T06:03:53;5.85;;;1.67;;
62679;SDS011;68213;40.528;44.712;2023-05-09T06:04:54;5.43;;;1.58;;
62679;SDS011;68213;40.528;44.712;2023-05-09T06:05:55;3.55;;;1.80;;
62679;SDS011;68213;40.528;44.712;2023-05-09T06:06:56;3.20;;;2.00;;
62679;SDS011;68213;40.528;44.712;2023-05-09T06:07:57;3.75;;;1.90;;
62679;SDS011;68213;40.528;44.712;2023-05-09T06:08:58;4.50;;;1.60;;
62679;SDS011;68213;40.528;44.712;2023-05-09T06:11:03;4.07;;;1.63;;
62679;SDS011;68213;40.528;44.712;2023-05-09T06:12:05;3.50;;;1.88;;
62679;SDS011;68213;40.528;44.712;2023-05-09T06:13:06;5.72;;;2.03;;
62679;SDS011;68213;40.528;44.712;2023-05-09T06:14:06;5.55;;;1.67;;
62679;SDS011;68213;40.528;44.712;2023-05-09T06:15:07;6.95;;;1.70;;
62679;SDS011;68213;40.528;44.712;2023-05-09T06:16:08;3.80;;;1.80;;
62679;SDS011;68213;40.528;44.712;2023-05-09T06:17:09;5.25;;;1.80;;
62679;SDS011;68213;40.528;44.712;2023-05-09T06:18:10;3.85;;;1.65;;
62679;SDS011;68213;40.528;44.712;2023-05-09T06:19:10;5.18;;;1.70;;
62679;SDS011;68213;40.528;44.712;2023-05-09T06:20:12;4.63;;;2.00;;
62679;SDS011;68213;40.528;44.712;2023-05-09T06:21:12;4.30;;;1.70;;